Time;durP1;ratioP1;P1;durP2;ratioP2;P2;SDS_P1;SDS_P2;PMS_P1;PMS_P2;Temp;Humidity;BMP_temperature;BMP_pressure;BME280_temperature;BME280_humidity;BME280_pressure;Samples;Min_cycle;Max_cycle;Signal;HPM_P1;HPM_P2
2021/05/19 00:00:02;;;;;;;1.23;0.50;;;;;;;20.76;48.18;100854.19;5073414;28;20040;-67
2021/05/19 00:02:29;;;;;;;5.20;0.68;;;;;;;20.80;48.06;100855.03;5072783;28;20036;-67
2021/05/19 00:04:56;;;;;;;1.17;0.43;;;;;;;20.81;47.75;100857.63;5072495;28;20041;-67
2021/05/19 00:07:24;;;;;;;3.05;0.60;;;;;;;20.72;48.12;100857.88;5073042;28;20060;-67
2021/05/19 00:09:52;;;;;;;2.25;0.68;;;;;;;20.67;48.25;100855.31;5073656;28;20075;-67
2021/05/19 00:12:19;;;;;;;2.88;0.68;;;;;;;20.60;48.46;100858.19;5072959;28;20120;-67
2021/05/19 00:14:46;;;;;;;0.70;0.40;;;;;;;20.53;48.28;100851.19;5072908;28;20040;-67
2021/05/19 00:17:14;;;;;;;2.30;0.40;;;;;;;20.52;48.34;100844.94;5072346;28;20044;-67
2021/05/19 00:19:41;;;;;;;2.63;0.50;;;;;;;20.55;48.34;100846.66;5072184;28;20127;-67
2021/05/19 00:22:08;;;;;;;1.90;0.70;;;;;;;20.59;48.19;100856.41;5073065;28;20064;-66
2021/05/19 00:24:35;;;;;;;3.20;0.45;;;;;;;20.57;48.12;100856.44;5072617;28;20530;-67
2021/05/19 00:27:04;;;;;;;2.55;0.57;;;;;;;20.51;48.08;100863.75;5072510;28;20060;-67
2021/05/19 00:29:31;;;;;;;2.83;0.90;;;;;;;20.39;48.58;100858.69;5072703;28;20047;-67
2021/05/19 00:31:59;;;;;;;4.70;1.00;;;;;;;20.34;48.63;100855.25;5072439;28;20040;-66
2021/05/19 00:34:26;;;;;;;1.25;0.40;;;;;;;20.37;48.43;100856.03;5072435;28;20060;-67
2021/05/19 00:36:53;;;;;;;2.03;0.65;;;;;;;20.37;48.60;100855.16;5072410;28;20052;-67
2021/05/19 00:39:20;;;;;;;2.05;0.50;;;;;;;20.36;48.52;100856.94;5072954;28;20041;-67
2021/05/19 00:41:48;;;;;;;1.77;0.55;;;;;;;20.31;48.69;100853.47;5072556;28;20036;-66
2021/05/19 00:44:17;;;;;;;1.33;0.50;;;;;;;20.29;48.63;100855.28;5070946;28;20044;-67
2021/05/19 00:46:46;;;;;;;2.28;0.60;;;;;;;20.24;48.78;100854.50;5071862;28;20041;-67
2021/05/19 00:49:13;;;;;;;2.20;0.60;;;;;;;20.11;49.02;100855.69;5072835;28;20036;-67
2021/05/19 00:51:41;;;;;;;3.88;1.08;;;;;;;20.15;49.06;100854.75;5072586;28;20060;-67
2021/05/19 00:54:08;;;;;;;4.25;1.00;;;;;;;20.18;48.84;100855.53;5071731;28;20032;-66
2021/05/19 00:56:35;;;;;;;3.47;0.60;;;;;;;20.19;48.87;100853.75;5072237;28;20105;-66
2021/05/19 00:59:04;;;;;;;4.05;0.63;;;;;;;20.16;48.69;100853.78;5072156;28;20037;-67
2021/05/19 01:01:35;;;;;;;1.95;0.57;;;;;;;20.15;48.57;100850.22;5072030;28;20067;-67
2021/05/19 01:04:03;;;;;;;5.32;0.50;;;;;;;20.00;48.93;100847.03;5071603;28;20052;-67
2021/05/19 01:06:36;;;;;;;1.48;0.40;;;;;;;19.97;49.03;100853.31;5072127;28;20039;-66
2021/05/19 01:11:49;;;;;;;2.13;1.00;;;;;;;20.01;48.82;100856.84;5049118;28;20382;-67
2021/05/19 01:14:16;;;;;;;1.98;0.50;;;;;;;20.07;48.53;100862.94;5064861;28;20067;-67
2021/05/19 01:16:45;;;;;;;4.88;0.60;;;;;;;20.10;48.51;100860.19;5070213;28;20044;-66
2021/05/19 01:19:14;;;;;;;2.72;0.70;;;;;;;20.10;48.25;100864.66;5072322;28;20047;-67
2021/05/19 01:21:43;;;;;;;2.47;0.70;;;;;;;20.03;48.35;100865.69;5071802;28;20468;-67
2021/05/19 01:24:12;;;;;;;3.40;0.50;;;;;;;19.89;48.77;100874.91;5071234;28;20041;-67
2021/05/19 01:26:39;;;;;;;2.00;0.60;;;;;;;19.83;48.84;100872.38;5070899;28;20041;-67
2021/05/19 01:29:06;;;;;;;1.13;0.65;;;;;;;19.75;49.18;100873.47;5071464;28;20140;-66
2021/05/19 01:31:33;;;;;;;3.05;0.60;;;;;;;19.76;49.11;100870.72;5071645;28;20044;-67
2021/05/19 01:34:00;;;;;;;1.85;0.75;;;;;;;19.78;49.11;100871.59;5070999;28;20063;-66
2021/05/19 01:36:27;;;;;;;3.95;0.70;;;;;;;19.79;49.13;100870.69;5071091;28;20045;-67
2021/05/19 01:38:55;;;;;;;1.73;0.50;;;;;;;19.79;49.46;100881.41;5071278;28;20045;-67
2021/05/19 01:41:23;;;;;;;1.63;0.80;;;;;;;19.77;49.38;100874.28;5070227;28;20558;-67
2021/05/19 01:43:51;;;;;;;2.70;0.68;;;;;;;19.74;49.47;100879.72;5071308;28;20123;-66
2021/05/19 01:46:18;;;;;;;3.30;0.68;;;;;;;19.76;49.26;100878.75;5071352;28;20123;-67
2021/05/19 01:48:52;;;;;;;1.77;0.75;;;;;;;19.79;49.02;100873.34;5070319;28;20051;-67
2021/05/19 01:51:21;;;;;;;3.00;0.75;;;;;;;19.78;48.90;100882.31;5070917;28;20492;-66
2021/05/19 01:53:48;;;;;;;1.52;0.70;;;;;;;19.78;48.91;100881.41;5070493;28;20044;-66
2021/05/19 01:56:16;;;;;;;3.15;0.90;;;;;;;19.77;48.92;100885.00;5071062;28;20071;-67
2021/05/19 01:58:44;;;;;;;1.17;0.47;;;;;;;19.68;49.13;100882.53;5070735;28;20041;-67
2021/05/19 02:01:12;;;;;;;1.90;0.80;;;;;;;19.56;49.28;100875.59;5070602;28;20063;-67
2021/05/19 02:03:39;;;;;;;2.10;0.60;;;;;;;19.55;49.40;100868.50;5071300;28;20420;-67
2021/05/19 02:06:07;;;;;;;2.17;0.57;;;;;;;19.60;49.39;100866.59;5071066;28;20480;-66
2021/05/19 02:08:34;;;;;;;3.75;0.80;;;;;;;19.61;49.36;100872.84;5070163;28;20134;-67
2021/05/19 02:11:02;;;;;;;1.88;0.70;;;;;;;19.61;49.27;100860.34;5069145;28;20396;-67
2021/05/19 02:13:29;;;;;;;3.03;0.65;;;;;;;19.64;49.19;100860.25;5071347;28;20490;-67
2021/05/19 02:15:57;;;;;;;1.60;0.80;;;;;;;19.51;49.45;100872.13;5070960;28;20029;-67
2021/05/19 02:18:24;;;;;;;2.55;0.60;;;;;;;19.32;50.10;100876.03;5070135;28;20098;-66
2021/05/19 02:20:51;;;;;;;2.25;0.40;;;;;;;19.34;50.18;100876.91;5070693;28;20409;-67
2021/05/19 02:23:18;;;;;;;2.60;0.50;;;;;;;19.40;50.01;100879.47;5070191;28;20121;-66
2021/05/19 02:25:46;;;;;;;2.53;0.50;;;;;;;19.44;49.85;100876.69;5070363;28;20049;-67
2021/05/19 02:28:13;;;;;;;1.63;0.60;;;;;;;19.48;49.49;100872.19;5070987;28;20059;-67
2021/05/19 02:30:41;;;;;;;1.85;0.40;;;;;;;19.49;49.52;100869.47;5071439;28;20098;-67
2021/05/19 02:33:13;;;;;;;3.47;0.70;;;;;;;19.48;49.59;100873.09;5070554;28;20072;-67
2021/05/19 02:35:40;;;;;;;6.57;1.55;;;;;;;19.40;49.81;100882.13;5074513;28;20057;-66
2021/05/19 02:38:08;;;;;;;2.92;0.90;;;;;;;19.33;50.12;100876.00;5070028;28;20045;-67
2021/05/19 02:40:35;;;;;;;2.20;0.65;;;;;;;19.45;49.87;100875.78;5070323;28;20051;-66
2021/05/19 02:43:02;;;;;;;3.25;0.70;;;;;;;19.54;49.57;100871.19;5071057;28;20044;-67
2021/05/19 02:45:29;;;;;;;6.47;0.80;;;;;;;19.54;49.85;100880.13;5070609;28;20029;-66
2021/05/19 02:47:57;;;;;;;3.95;0.90;;;;;;;19.49;50.00;100882.00;5070275;28;20060;-67
2021/05/19 02:50:25;;;;;;;2.40;0.70;;;;;;;19.19;50.87;100879.84;5070697;28;20102;-67
2021/05/19 02:52:52;;;;;;;3.58;0.60;;;;;;;19.01;51.36;100876.59;5071239;28;20116;-67
2021/05/19 02:55:20;;;;;;;2.88;0.50;;;;;;;19.05;51.31;100877.41;5070118;28;20056;-67
2021/05/19 02:57:47;;;;;;;1.05;0.50;;;;;;;19.11;51.14;100888.88;5069917;28;20463;-66
2021/05/19 03:00:14;;;;;;;4.78;0.68;;;;;;;19.20;50.83;100901.22;5070406;28;20067;-67
2021/05/19 03:02:42;;;;;;;2.55;0.85;;;;;;;19.23;50.68;100897.63;5071421;28;20051;-67
2021/05/19 03:05:10;;;;;;;3.55;0.90;;;;;;;19.23;50.65;100897.63;5069860;28;20082;-67
2021/05/19 03:07:38;;;;;;;5.82;0.70;;;;;;;19.18;50.74;100900.38;5070130;28;20036;-66
2021/05/19 03:10:06;;;;;;;1.48;0.63;;;;;;;19.24;50.57;100902.03;5070396;28;20044;-66
2021/05/19 03:12:33;;;;;;;1.70;0.77;;;;;;;19.34;50.46;100901.00;5070085;28;20079;-67
2021/05/19 03:15:01;;;;;;;2.53;0.85;;;;;;;19.46;50.23;100900.78;5069362;28;20500;-66
2021/05/19 03:17:28;;;;;;;4.35;0.65;;;;;;;19.53;49.96;100902.44;5069900;28;20090;-66
2021/05/19 03:19:55;;;;;;;5.53;0.73;;;;;;;19.51;50.12;100901.59;5070055;28;20076;-66
2021/05/19 03:22:22;;;;;;;4.13;1.08;;;;;;;19.44;50.33;100902.56;5070244;28;20035;-67
2021/05/19 03:24:50;;;;;;;4.40;0.68;;;;;;;19.31;50.96;100906.38;5070685;28;20052;-67
2021/05/19 03:27:17;;;;;;;4.07;0.80;;;;;;;19.21;51.45;100908.34;5069516;28;20120;-66
2021/05/19 03:29:45;;;;;;;5.75;0.80;;;;;;;19.36;51.42;100917.91;5069330;28;20526;-67
2021/05/19 03:32:12;;;;;;;3.42;0.70;;;;;;;19.53;51.29;100910.47;5073847;28;20036;-66
2021/05/19 03:34:39;;;;;;;4.47;0.90;;;;;;;19.69;51.36;100919.13;5074263;28;20131;-66
2021/05/19 03:37:07;;;;;;;3.80;0.90;;;;;;;19.76;51.02;100916.25;5073514;28;20036;-66
2021/05/19 03:39:34;;;;;;;1.52;0.68;;;;;;;19.95;50.89;100914.13;5073617;28;20127;-67
2021/05/19 03:42:02;;;;;;;2.90;0.47;;;;;;;20.08;50.58;100923.69;5073657;28;20052;-67
2021/05/19 03:44:29;;;;;;;3.05;0.50;;;;;;;20.27;50.15;100929.53;5072259;28;20119;-67
2021/05/19 03:46:56;;;;;;;2.88;0.60;;;;;;;20.43;49.77;100920.25;5074386;28;20106;-67
2021/05/19 03:49:23;;;;;;;3.55;0.60;;;;;;;20.59;49.38;100919.00;5073116;28;20059;-66
2021/05/19 03:51:50;;;;;;;4.65;0.70;;;;;;;20.71;49.21;100917.84;5073836;28;20116;-67
2021/05/19 03:54:17;;;;;;;3.30;0.70;;;;;;;20.83;48.86;100914.84;5073214;28;20484;-66
2021/05/19 03:56:44;;;;;;;2.67;0.65;;;;;;;20.96;48.85;100921.69;5072824;28;20159;-67
2021/05/19 03:59:13;;;;;;;3.42;0.70;;;;;;;21.14;48.63;100922.13;5073716;28;20051;-67
2021/05/19 04:01:40;;;;;;;2.05;0.65;;;;;;;21.29;48.46;100927.16;5073875;28;20064;-67
2021/05/19 04:04:07;;;;;;;4.13;0.57;;;;;;;21.46;48.13;100919.56;5073195;28;20048;-66
2021/05/19 04:06:34;;;;;;;5.30;0.70;;;;;;;21.67;48.10;100927.03;5073018;28;20098;-67
2021/05/19 04:09:05;;;;;;;1.25;0.40;;;;;;;21.82;48.20;100914.97;5072167;28;20560;-67
2021/05/19 04:11:33;;;;;;;2.88;0.60;;;;;;;22.05;47.98;100935.88;5073188;28;20550;-67
2021/05/19 04:14:00;;;;;;;3.47;0.77;;;;;;;22.23;47.86;100929.94;5073338;28;20043;-67
2021/05/19 04:16:29;;;;;;;2.83;1.02;;;;;;;22.45;47.33;100925.66;5073257;28;20602;-66
2021/05/19 04:18:56;;;;;;;2.03;0.52;;;;;;;22.60;46.82;100933.28;5072740;28;20123;-67
2021/05/19 04:21:23;;;;;;;2.42;0.50;;;;;;;22.80;46.36;100937.19;5072768;28;20166;-67
2021/05/19 04:23:50;;;;;;;0.80;0.50;;;;;;;22.99;46.02;100939.22;5072950;28;20492;-67
2021/05/19 04:26:18;;;;;;;2.67;0.68;;;;;;;23.16;45.98;100932.41;5072749;28;20029;-67
2021/05/19 04:28:46;;;;;;;3.85;0.60;;;;;;;23.42;45.68;100946.78;5072814;28;20066;-67
2021/05/19 04:31:13;;;;;;;4.90;0.70;;;;;;;23.59;45.21;100948.03;5073161;28;20119;-66
2021/05/19 04:33:42;;;;;;;4.53;0.63;;;;;;;23.84;44.61;100946.19;5072651;28;20127;-66
2021/05/19 04:36:09;;;;;;;2.50;0.57;;;;;;;24.06;43.99;100943.63;5072741;28;20036;-66
2021/05/19 04:38:37;;;;;;;3.22;0.68;;;;;;;24.34;43.51;100947.06;5072672;28;20037;-67
2021/05/19 04:41:04;;;;;;;5.78;0.90;;;;;;;24.60;42.85;100946.06;5073122;28;20037;-66
2021/05/19 04:43:32;;;;;;;1.88;0.45;;;;;;;24.88;42.49;100956.63;5072030;28;20037;-66
2021/05/19 04:45:59;;;;;;;3.72;0.73;;;;;;;25.11;42.00;100950.31;5072029;28;20039;-66
2021/05/19 04:48:27;;;;;;;2.95;0.70;;;;;;;25.38;41.49;100957.28;5071355;28;20056;-66
2021/05/19 04:50:56;;;;;;;2.92;0.82;;;;;;;25.56;40.87;100953.78;5071120;28;20036;-67
2021/05/19 04:53:23;;;;;;;1.90;0.70;;;;;;;25.83;40.38;100965.25;5072107;28;20086;-66
2021/05/19 04:55:49;;;;;;;2.22;0.50;;;;;;;26.11;39.94;100965.78;5072810;28;20040;-67
2021/05/19 04:58:17;;;;;;;4.55;0.63;;;;;;;26.43;39.46;100963.47;5071657;28;20034;-67
2021/05/19 05:00:44;;;;;;;4.35;0.65;;;;;;;26.71;39.16;100966.63;5072639;28;20049;-67
2021/05/19 05:03:11;;;;;;;1.63;0.47;;;;;;;27.05;39.17;100975.84;5072526;28;20047;-66
2021/05/19 05:05:38;;;;;;;2.55;0.60;;;;;;;27.34;38.61;100975.28;5072286;28;20040;-67
2021/05/19 05:08:08;;;;;;;4.05;0.80;;;;;;;27.59;38.13;100978.53;5071519;28;20439;-66
2021/05/19 05:10:35;;;;;;;1.42;0.40;;;;;;;27.85;37.62;100977.16;5072214;28;20067;-67
2021/05/19 05:13:02;;;;;;;6.82;1.15;;;;;;;28.16;37.26;100973.72;5072246;28;20132;-66
2021/05/19 05:15:29;;;;;;;2.92;0.70;;;;;;;28.43;36.61;100983.09;5071828;28;20036;-67
2021/05/19 05:17:56;;;;;;;6.15;1.05;;;;;;;28.73;36.39;100980.53;5072011;28;20124;-67
2021/05/19 05:20:24;;;;;;;2.08;0.30;;;;;;;28.98;35.92;100981.88;5071546;28;20505;-66
2021/05/19 05:22:51;;;;;;;3.63;0.60;;;;;;;29.24;35.25;100983.97;5071239;28;20556;-67
2021/05/19 05:25:22;;;;;;;1.95;0.50;;;;;;;29.54;35.04;100984.00;5071971;28;20513;-67
2021/05/19 05:27:52;;;;;;;4.60;0.70;;;;;;;29.78;34.71;100988.00;5071489;28;20036;-67
2021/05/19 05:30:19;;;;;;;2.08;0.45;;;;;;;29.97;34.62;100987.78;5071687;28;20130;-67
2021/05/19 05:32:47;;;;;;;3.72;0.40;;;;;;;30.09;34.08;100981.56;5071771;28;20044;-67
2021/05/19 05:35:14;;;;;;;4.40;0.60;;;;;;;30.06;33.80;100996.25;5070212;28;20588;-67
2021/05/19 05:37:41;;;;;;;3.72;0.40;;;;;;;30.06;33.98;100996.25;5071208;28;20472;-68
2021/05/19 05:40:09;;;;;;;4.18;0.45;;;;;;;30.12;33.96;100999.59;5071001;28;20091;-67
2021/05/19 05:42:37;;;;;;;3.72;0.60;;;;;;;30.20;33.45;100992.69;5068296;28;20496;-67
2021/05/19 05:45:06;;;;;;;6.05;0.40;;;;;;;30.24;33.16;100990.66;5071481;28;20032;-67
2021/05/19 05:47:34;;;;;;;4.18;0.60;;;;;;;30.36;33.11;100989.88;5070865;28;20040;-67
2021/05/19 05:50:03;;;;;;;2.50;0.40;;;;;;;30.56;33.10;100997.69;5071352;28;20032;-67
2021/05/19 05:52:30;;;;;;;1.00;0.30;;;;;;;30.61;33.03;101000.13;5070518;28;20071;-67
2021/05/19 05:54:58;;;;;;;3.58;0.63;;;;;;;30.75;32.62;101003.72;5070732;28;20047;-67
2021/05/19 05:57:25;;;;;;;4.15;0.90;;;;;;;30.83;32.32;101003.22;5069440;28;20478;-67
2021/05/19 10:00:47;;;;;;;4.20;0.50;;;;;;;35.23;23.71;100873.38;5068791;27;20868;-65
2021/05/19 10:03:18;;;;;;;1.15;0.73;;;;;;;35.19;23.79;100863.59;5067148;28;20501;-65
2021/05/19 10:05:50;;;;;;;2.08;0.40;;;;;;;35.02;23.63;100870.56;5063534;28;20042;-65
2021/05/19 10:08:17;;;;;;;4.88;0.60;;;;;;;34.86;23.62;100866.47;5073548;28;20068;-64
2021/05/19 10:10:44;;;;;;;1.85;0.60;;;;;;;34.66;23.35;100860.75;5077103;28;20045;-64
2021/05/19 10:13:13;;;;;;;3.20;0.70;;;;;;;34.68;23.88;100855.16;5082278;28;20068;-64
2021/05/19 10:15:41;;;;;;;2.65;0.40;;;;;;;34.72;23.98;100857.53;5071246;28;20040;-64
2021/05/19 10:18:11;;;;;;;2.95;0.52;;;;;;;34.72;23.80;100852.03;5072939;28;20090;-64
2021/05/19 10:20:42;;;;;;;3.53;0.60;;;;;;;34.62;23.66;100856.53;5083663;28;20032;-65
2021/05/19 10:23:11;;;;;;;2.53;0.30;;;;;;;34.52;23.43;100860.19;5067098;28;20033;-65
2021/05/19 10:25:41;;;;;;;3.35;0.50;;;;;;;34.54;23.58;100856.31;5047274;28;20048;-65
2021/05/19 10:28:10;;;;;;;2.30;0.50;;;;;;;34.58;23.53;100843.22;5047597;28;20414;-65
2021/05/19 10:30:41;;;;;;;3.17;0.80;;;;;;;34.62;23.02;100841.94;5065809;28;20119;-64
2021/05/19 10:33:47;;;;;;;2.65;0.70;;;;;;;34.60;22.98;100830.22;5070640;28;20101;-64
2021/05/19 10:36:33;;;;;;;1.60;0.50;;;;;;;34.50;23.13;100832.88;5069670;28;20044;-64
2021/05/19 10:39:25;;;;;;;2.28;0.45;;;;;;;34.44;22.89;100829.78;5066688;28;20122;-64
2021/05/19 10:41:54;;;;;;;3.30;0.47;;;;;;;34.33;22.53;100826.03;5066970;28;20424;-64
2021/05/19 10:44:23;;;;;;;3.17;0.85;;;;;;;34.33;22.30;100816.97;5066846;28;20037;-64
2021/05/19 10:46:54;;;;;;;2.30;0.52;;;;;;;34.43;22.19;100830.78;5066481;28;20618;-64
2021/05/19 10:49:23;;;;;;;2.65;0.77;;;;;;;34.58;21.95;100829.50;5076171;28;20040;-64
2021/05/19 10:52:08;;;;;;;2.83;0.60;;;;;;;34.42;22.33;100829.91;5086778;28;20051;-64
2021/05/19 10:57:49;;;;;;;6.38;1.20;;;;;;;34.37;26.98;100834.91;5067100;28;20056;-64
2021/05/19 11:00:23;;;;;;;2.88;0.80;;;;;;;34.43;27.83;100850.84;5075276;28;20041;-65
2021/05/19 11:03:23;;;;;;;;;;;;;;;34.38;27.61;100850.34;5063959;28;20398;-65
2021/05/19 11:06:14;;;;;;;4.32;1.02;;;;;;;34.18;28.34;100851.97;5013916;28;20295;-64
2021/05/19 11:08:41;;;;;;;4.88;1.08;;;;;;;34.34;28.14;100852.47;5012758;28;20045;-64
2021/05/19 11:11:22;;;;;;;6.03;0.90;;;;;;;34.27;27.89;100853.09;5049824;28;20037;-64
2021/05/19 11:14:28;;;;;;;5.32;1.85;;;;;;;33.98;28.99;100848.09;5069031;28;20147;-65
2021/05/19 11:17:09;;;;;;;3.15;0.95;;;;;;;34.12;28.29;100852.47;5062513;28;20072;-65
2021/05/19 11:19:38;;;;;;;4.15;1.30;;;;;;;34.54;27.54;100860.91;5068928;28;20041;-65
2021/05/19 11:22:10;;;;;;;4.15;1.38;;;;;;;34.69;27.00;100856.91;5061590;28;20120;-65
2021/05/19 11:24:55;;;;;;;9.95;2.78;;;;;;;34.39;26.69;100863.06;5065385;28;20043;-65
2021/05/19 11:27:25;;;;;;;5.63;1.13;;;;;;;34.46;27.43;100857.97;5046509;28;20425;-65
2021/05/19 11:29:52;;;;;;;5.18;1.33;;;;;;;34.96;26.70;100859.22;5055021;28;20600;-65
2021/05/19 11:32:21;;;;;;;4.32;0.90;;;;;;;35.01;26.83;100857.81;5042334;28;20129;-64
2021/05/19 11:34:48;;;;;;;3.88;0.85;;;;;;;35.24;26.66;100858.66;5046795;28;20065;-65
2021/05/19 11:37:18;;;;;;;4.75;0.90;;;;;;;35.14;26.77;100857.63;5048819;28;20049;-65
2021/05/19 11:39:50;;;;;;;3.47;1.20;;;;;;;35.14;26.95;100857.63;5055964;28;20083;-66
2021/05/19 11:42:23;;;;;;;4.28;1.10;;;;;;;35.22;26.91;100846.03;5051324;28;20500;-65
2021/05/19 11:44:54;;;;;;;9.02;1.40;;;;;;;35.06;26.85;100840.94;5050687;28;20124;-65
2021/05/19 11:47:36;;;;;;;4.32;0.98;;;;;;;34.73;27.30;100842.81;5051031;28;20052;-66
2021/05/19 11:50:15;;;;;;;4.35;1.23;;;;;;;34.93;27.05;100830.16;5041857;28;20041;-65
2021/05/19 11:52:47;;;;;;;3.58;0.70;;;;;;;34.81;27.19;100830.31;5032578;28;20053;-65
2021/05/19 11:55:28;;;;;;;4.20;1.08;;;;;;;35.19;26.48;100827.91;5040172;28;20044;-65
2021/05/19 11:58:21;;;;;;;4.13;0.60;;;;;;;35.33;26.04;100816.63;5011122;28;20033;-65
2021/05/19 12:00:50;;;;;;;3.13;0.83;;;;;;;35.55;25.98;100813.75;5030009;28;20039;-65
2021/05/19 12:03:19;;;;;;;7.10;1.00;;;;;;;35.41;26.24;100808.59;5029694;28;20033;-66
2021/05/19 12:05:51;;;;;;;5.47;0.73;;;;;;;35.38;26.51;100814.34;5029822;28;20560;-65
2021/05/19 12:08:21;;;;;;;4.53;0.80;;;;;;;35.25;26.69;100805.44;5030617;28;20040;-66
2021/05/19 12:11:01;;;;;;;5.35;1.25;;;;;;;34.93;26.63;100807.31;5029780;28;20088;-65
2021/05/19 12:13:31;;;;;;;3.72;0.80;;;;;;;34.96;26.77;100799.72;5033879;28;20107;-66
2021/05/19 12:15:59;;;;;;;4.78;0.82;;;;;;;34.59;27.47;100796.44;5050411;28;20120;-65
2021/05/19 12:18:27;;;;;;;3.05;0.85;;;;;;;34.59;27.36;100788.19;5046391;28;20037;-64
2021/05/19 12:20:54;;;;;;;8.25;1.00;;;;;;;35.04;27.01;100794.44;5058201;28;20040;-65
2021/05/19 12:23:23;;;;;;;6.90;1.13;;;;;;;34.97;27.12;100787.72;5050098;28;20049;-65
2021/05/19 12:25:56;;;;;;;3.05;0.80;;;;;;;34.86;27.26;100784.13;5033759;28;20117;-64
2021/05/19 12:28:24;;;;;;;3.97;1.00;;;;;;;35.00;26.96;100789.31;5048768;28;20083;-64
2021/05/19 12:30:53;;;;;;;3.83;1.45;;;;;;;34.81;27.23;100790.03;5057915;28;20565;-64
2021/05/19 12:33:23;;;;;;;2.97;0.90;;;;;;;34.66;27.60;100781.19;5029515;28;20056;-64
2021/05/19 12:35:51;;;;;;;5.40;0.70;;;;;;;34.81;27.70;100786.41;5057926;28;20049;-64
2021/05/19 12:38:24;;;;;;;6.93;0.80;;;;;;;34.85;27.69;100785.16;5049745;28;20037;-65
2021/05/19 12:40:54;;;;;;;5.88;1.13;;;;;;;34.69;27.50;100783.69;5051008;28;20052;-65
2021/05/19 12:43:24;;;;;;;3.80;1.10;;;;;;;34.71;27.86;100784.47;5056963;28;20040;-66
2021/05/19 12:45:52;;;;;;;4.10;0.90;;;;;;;34.74;27.68;100780.59;5048892;28;20033;-65
2021/05/19 12:48:21;;;;;;;4.70;0.60;;;;;;;34.71;27.84;100776.25;5049155;28;20406;-66
2021/05/19 12:50:49;;;;;;;3.70;0.90;;;;;;;34.82;27.89;100785.41;5051179;28;20547;-66
2021/05/19 12:53:35;;;;;;;3.75;0.75;;;;;;;34.97;27.48;100779.50;5067315;28;20063;-66
2021/05/19 12:56:11;;;;;;;4.82;0.63;;;;;;;34.95;26.97;100783.38;5049279;28;20049;-67
2021/05/19 12:58:51;;;;;;;4.35;1.00;;;;;;;34.85;27.18;100782.44;5046770;28;20570;-66
2021/05/19 13:01:19;;;;;;;5.22;0.90;;;;;;;34.78;27.26;100780.22;5031939;28;20044;-66
2021/05/19 13:03:47;;;;;;;2.42;0.70;;;;;;;35.10;26.81;100780.19;5048807;28;20048;-67
2021/05/19 13:06:14;;;;;;;4.43;0.98;;;;;;;35.10;26.57;100777.44;5048618;28;20041;-66
2021/05/19 13:08:41;;;;;;;2.38;0.80;;;;;;;35.07;26.22;100776.81;5048728;28;20430;-66
2021/05/19 13:11:21;;;;;;;3.55;0.80;;;;;;;35.02;26.15;100771.72;5042073;28;20045;-67
2021/05/19 13:13:49;;;;;;;4.47;0.68;;;;;;;35.09;26.29;100770.19;5028334;28;20041;-67
2021/05/19 13:16:20;;;;;;;3.70;0.80;;;;;;;34.93;26.33;100772.50;5043493;28;20045;-67
2021/05/19 13:18:51;;;;;;;7.60;0.90;;;;;;;34.77;26.55;100777.59;5048781;28;20072;-66
2021/05/19 13:21:22;;;;;;;2.38;0.88;;;;;;;34.56;26.71;100779.38;5048379;28;20072;-66
2021/05/19 13:23:53;;;;;;;2.25;0.60;;;;;;;34.36;26.77;100779.19;5048114;28;20056;-67
2021/05/19 13:26:26;;;;;;;4.47;0.93;;;;;;;34.20;27.12;100772.34;5049118;28;20140;-66
2021/05/19 13:28:55;;;;;;;5.75;1.23;;;;;;;34.24;27.15;100784.81;5048255;28;20049;-66
2021/05/19 13:31:26;;;;;;;2.95;0.70;;;;;;;34.17;27.31;100778.06;5048663;28;20099;-67
2021/05/19 13:34:04;;;;;;;3.30;0.70;;;;;;;34.18;27.02;100777.06;5048518;28;20045;-66
2021/05/19 13:36:36;;;;;;;3.78;0.60;;;;;;;34.54;26.37;100774.00;5048392;28;20041;-67
2021/05/19 13:39:07;;;;;;;1.80;0.40;;;;;;;34.51;25.91;100779.78;5048590;28;20029;-67
2021/05/19 13:41:35;;;;;;;3.63;0.65;;;;;;;34.26;26.08;100772.72;5048982;28;20128;-67
2021/05/19 13:44:04;;;;;;;4.40;0.73;;;;;;;34.04;26.21;100766.38;5048198;28;20409;-66
2021/05/19 13:46:31;;;;;;;5.05;0.90;;;;;;;34.14;26.17;100770.06;5048575;28;20033;-66
2021/05/19 13:49:15;;;;;;;4.45;0.60;;;;;;;34.22;26.30;100776.72;5048633;28;20036;-67
2021/05/19 13:51:45;;;;;;;5.90;0.88;;;;;;;33.97;26.18;100777.84;5047828;28;20045;-66
2021/05/19 13:54:14;;;;;;;4.15;1.23;;;;;;;33.95;25.88;100785.31;5048469;28;20635;-66
2021/05/19 13:56:42;;;;;;;4.47;0.60;;;;;;;34.20;25.47;100784.16;5048576;28;20068;-66
2021/05/19 13:59:09;;;;;;;3.90;0.70;;;;;;;34.42;25.68;100782.41;5047864;28;20139;-67
2021/05/19 14:01:37;;;;;;;4.55;0.70;;;;;;;34.60;25.02;100775.34;5048446;28;20040;-66
2021/05/19 14:04:04;;;;;;;2.80;0.73;;;;;;;34.26;24.57;100782.84;5048302;28;20033;-66
2021/05/19 14:06:32;;;;;;;3.95;0.52;;;;;;;34.00;24.98;100776.72;5047965;28;20091;-66
2021/05/19 14:08:59;;;;;;;1.10;0.60;;;;;;;34.10;24.65;100777.69;5048668;28;20139;-66
2021/05/19 14:11:29;;;;;;;3.72;0.45;;;;;;;34.28;24.52;100778.06;5028614;28;20095;-67
2021/05/19 14:14:07;;;;;;;4.03;0.73;;;;;;;34.03;24.51;100772.84;5046613;28;20044;-66
2021/05/19 14:27:40;;;;;;;3.00;0.60;;;;;;;33.70;23.91;100774.56;5039082;28;19925;-67
2021/05/19 14:30:12;;;;;;;2.50;0.55;;;;;;;33.79;23.52;100776.59;5048044;28;20037;-67
2021/05/19 14:32:39;;;;;;;3.30;1.00;;;;;;;33.65;23.57;100771.34;5047607;28;20402;-67
2021/05/19 14:35:13;;;;;;;2.67;0.70;;;;;;;33.69;23.80;100772.81;5049097;28;20041;-67
2021/05/19 14:46:19;;;;;;;4.10;0.88;;;;;;;33.72;23.32;100775.34;5051305;28;20405;-67
2021/05/19 14:54:38;;;;;;;3.60;0.80;;;;;;;33.04;23.78;100776.16;5046031;28;20163;-67
2021/05/19 14:59:54;;;;;;;3.38;0.90;;;;;;;32.49;24.61;100784.09;5047055;28;20057;-67
2021/05/19 15:02:23;;;;;;;5.60;0.68;;;;;;;32.43;24.78;100782.66;5050587;28;20044;-67
2021/05/19 15:04:54;;;;;;;3.67;0.43;;;;;;;32.28;25.50;100771.06;5046351;28;20040;-66
2021/05/19 15:07:21;;;;;;;3.00;0.77;;;;;;;32.49;26.02;100781.38;5040532;28;20029;-66
2021/05/19 15:09:47;;;;;;;5.03;1.27;;;;;;;33.00;25.47;100782.88;5051095;28;20125;-67
2021/05/19 15:12:14;;;;;;;4.07;0.88;;;;;;;33.07;25.75;100781.41;5048041;28;20520;-68
2021/05/19 15:14:41;;;;;;;3.78;0.50;;;;;;;32.88;26.36;100782.94;5048419;28;20044;-67
2021/05/19 15:17:08;;;;;;;6.25;1.13;;;;;;;32.84;25.95;100791.38;5047821;28;20037;-67
2021/05/19 15:19:37;;;;;;;7.35;1.33;;;;;;;32.83;26.02;100788.75;5049910;28;20037;-66
2021/05/19 15:22:04;;;;;;;3.67;0.85;;;;;;;33.01;25.67;100790.09;5050451;28;20069;-66
2021/05/19 15:24:31;;;;;;;4.10;0.80;;;;;;;32.99;25.30;100783.84;5051708;28;20049;-67
2021/05/19 15:26:58;;;;;;;5.72;1.02;;;;;;;32.55;26.45;100780.91;5044372;28;20128;-67
2021/05/19 15:29:25;;;;;;;6.18;0.98;;;;;;;32.27;26.57;100779.34;5043095;28;20044;-67
2021/05/19 15:31:52;;;;;;;6.22;1.15;;;;;;;32.11;26.48;100782.31;5045265;28;20045;-67
2021/05/19 15:34:20;;;;;;;5.90;0.80;;;;;;;31.90;26.92;100786.63;5044213;28;20049;-67
2021/05/19 15:36:49;;;;;;;5.88;1.25;;;;;;;31.66;27.16;100779.22;5046408;28;20044;-67
2021/05/19 15:39:16;;;;;;;7.00;1.23;;;;;;;31.44;28.02;100784.41;5047256;28;20048;-66
2021/05/19 15:41:43;;;;;;;6.13;1.13;;;;;;;31.14;28.70;100789.31;5046543;28;20040;-66
2021/05/19 15:44:10;;;;;;;4.72;0.77;;;;;;;30.97;29.09;100789.59;5047405;28;20060;-66
2021/05/19 15:46:37;;;;;;;6.68;0.90;;;;;;;30.69;29.25;100794.19;5047372;28;20041;-66
2021/05/19 15:49:04;;;;;;;7.07;1.35;;;;;;;30.57;29.74;100792.31;5046939;28;20052;-67
2021/05/19 15:51:32;;;;;;;5.15;1.00;;;;;;;30.54;29.60;100794.34;5050205;28;20041;-66
2021/05/19 15:54:01;;;;;;;3.33;0.60;;;;;;;30.52;29.32;100788.13;5051457;28;20037;-67
2021/05/19 15:56:28;;;;;;;4.35;0.70;;;;;;;30.38;29.06;100787.16;5048985;28;20565;-66
2021/05/19 15:58:55;;;;;;;5.43;0.80;;;;;;;30.14;28.97;100791.50;5046976;28;20049;-66
2021/05/19 16:01:22;;;;;;;4.68;0.70;;;;;;;29.88;28.86;100793.16;5047038;28;20067;-66
2021/05/19 16:03:49;;;;;;;8.88;1.05;;;;;;;29.68;29.13;100790.81;5047539;28;20044;-66
2021/05/19 16:06:19;;;;;;;7.00;1.20;;;;;;;29.63;29.21;100787.50;5048805;28;20471;-66
2021/05/19 16:08:46;;;;;;;2.42;0.65;;;;;;;29.35;29.56;100787.47;5050534;28;20055;-66